sensor_id;sensor_type;location;lat;lon;timestamp;P1;durP1;ratioP1;P2;durP2;ratioP2
23228;SDS011;11783;50.350;6.576;2022-12-07T00:01:27;45.75;;;19.70;;
23228;SDS011;11783;50.350;6.576;2022-12-07T00:03:58;40.78;;;18.83;;
23228;SDS011;11783;50.350;6.576;2022-12-07T00:06:35;43.35;;;19.33;;
23228;SDS011;11783;50.350;6.576;2022-12-07T00:09:03;44.20;;;19.27;;
23228;SDS011;11783;50.350;6.576;2022-12-07T00:11:30;38.13;;;17.92;;
23228;SDS011;11783;50.350;6.576;2022-12-07T00:13:56;36.13;;;17.98;;
23228;SDS011;11783;50.350;6.576;2022-12-07T00:16:24;42.17;;;18.77;;
23228;SDS011;11783;50.350;6.576;2022-12-07T00:18:51;36.97;;;17.73;;
23228;SDS011;11783;50.350;6.576;2022-12-07T00:23:49;35.50;;;16.67;;
23228;SDS011;11783;50.350;6.576;2022-12-07T00:26:19;33.55;;;16.23;;
23228;SDS011;11783;50.350;6.576;2022-12-07T00:28:47;32.97;;;15.60;;
23228;SDS011;11783;50.350;6.576;2022-12-07T00:31:15;33.72;;;16.50;;
23228;SDS011;11783;50.350;6.576;2022-12-07T00:33:42;32.00;;;16.20;;
23228;SDS011;11783;50.350;6.576;2022-12-07T00:36:08;30.80;;;14.63;;
23228;SDS011;11783;50.350;6.576;2022-12-07T00:38:36;29.73;;;14.57;;
23228;SDS011;11783;50.350;6.576;2022-12-07T00:41:05;25.85;;;13.63;;
23228;SDS011;11783;50.350;6.576;2022-12-07T00:43:35;25.48;;;12.43;;
23228;SDS011;11783;50.350;6.576;2022-12-07T00:46:01;28.75;;;14.00;;
23228;SDS011;11783;50.350;6.576;2022-12-07T00:48:26;27.20;;;13.98;;
23228;SDS011;11783;50.350;6.576;2022-12-07T00:50:51;25.70;;;12.88;;
23228;SDS011;11783;50.350;6.576;2022-12-07T00:53:17;24.63;;;13.02;;
23228;SDS011;11783;50.350;6.576;2022-12-07T00:55:43;24.85;;;12.32;;
23228;SDS011;11783;50.350;6.576;2022-12-07T00:58:08;22.30;;;11.65;;
23228;SDS011;11783;50.350;6.576;2022-12-07T01:00:36;24.88;;;12.68;;
23228;SDS011;11783;50.350;6.576;2022-12-07T01:03:03;23.70;;;12.18;;
23228;SDS011;11783;50.350;6.576;2022-12-07T01:05:29;23.77;;;12.18;;
23228;SDS011;11783;50.350;6.576;2022-12-07T01:07:54;24.50;;;11.93;;
23228;SDS011;11783;50.350;6.576;2022-12-07T01:10:19;24.00;;;12.65;;
23228;SDS011;11783;50.350;6.576;2022-12-07T01:12:44;31.95;;;13.63;;
23228;SDS011;11783;50.350;6.576;2022-12-07T01:15:10;24.92;;;13.18;;
23228;SDS011;11783;50.350;6.576;2022-12-07T01:17:35;28.63;;;13.25;;
23228;SDS011;11783;50.350;6.576;2022-12-07T01:20:01;27.65;;;13.55;;
23228;SDS011;11783;50.350;6.576;2022-12-07T01:22:27;30.33;;;14.25;;
23228;SDS011;11783;50.350;6.576;2022-12-07T01:24:53;29.10;;;13.18;;
23228;SDS011;11783;50.350;6.576;2022-12-07T01:27:18;28.65;;;13.50;;
23228;SDS011;11783;50.350;6.576;2022-12-07T01:29:43;24.25;;;12.32;;
23228;SDS011;11783;50.350;6.576;2022-12-07T01:32:09;26.40;;;12.90;;
23228;SDS011;11783;50.350;6.576;2022-12-07T01:34:35;27.73;;;13.23;;
23228;SDS011;11783;50.350;6.576;2022-12-07T01:37:00;26.75;;;13.48;;
23228;SDS011;11783;50.350;6.576;2022-12-07T01:39:25;26.42;;;12.95;;
23228;SDS011;11783;50.350;6.576;2022-12-07T01:41:51;24.85;;;12.80;;
23228;SDS011;11783;50.350;6.576;2022-12-07T01:46:48;19.95;;;9.55;;
23228;SDS011;11783;50.350;6.576;2022-12-07T01:49:37;26.23;;;12.82;;
23228;SDS011;11783;50.350;6.576;2022-12-07T01:54:39;23.33;;;12.00;;
23228;SDS011;11783;50.350;6.576;2022-12-07T01:57:06;25.83;;;12.52;;
23228;SDS011;11783;50.350;6.576;2022-12-07T01:59:33;22.60;;;11.25;;
23228;SDS011;11783;50.350;6.576;2022-12-07T02:01:59;21.58;;;11.48;;
23228;SDS011;11783;50.350;6.576;2022-12-07T02:04:29;23.80;;;12.75;;
23228;SDS011;11783;50.350;6.576;2022-12-07T02:06:54;23.02;;;11.82;;
23228;SDS011;11783;50.350;6.576;2022-12-07T02:09:20;22.77;;;11.77;;
23228;SDS011;11783;50.350;6.576;2022-12-07T02:11:45;23.80;;;12.25;;
23228;SDS011;11783;50.350;6.576;2022-12-07T02:14:11;21.95;;;11.35;;
23228;SDS011;11783;50.350;6.576;2022-12-07T02:17:00;20.25;;;10.88;;
23228;SDS011;11783;50.350;6.576;2022-12-07T02:22:18;21.25;;;11.40;;
23228;SDS011;11783;50.350;6.576;2022-12-07T02:25:07;20.27;;;10.73;;
23228;SDS011;11783;50.350;6.576;2022-12-07T02:27:45;20.17;;;10.25;;
23228;SDS011;11783;50.350;6.576;2022-12-07T02:30:16;22.80;;;10.55;;
23228;SDS011;11783;50.350;6.576;2022-12-07T02:32:50;18.40;;;10.40;;
23228;SDS011;11783;50.350;6.576;2022-12-07T02:43:16;18.33;;;9.85;;
23228;SDS011;11783;50.350;6.576;2022-12-07T02:45:49;18.17;;;10.35;;
23228;SDS011;11783;50.350;6.576;2022-12-07T02:48:16;17.50;;;9.40;;
23228;SDS011;11783;50.350;6.576;2022-12-07T02:50:50;16.98;;;9.25;;
23228;SDS011;11783;50.350;6.576;2022-12-07T02:53:33;17.30;;;9.48;;
23228;SDS011;11783;50.350;6.576;2022-12-07T02:56:06;16.80;;;9.10;;
23228;SDS011;11783;50.350;6.576;2022-12-07T02:58:48;20.25;;;10.57;;
23228;SDS011;11783;50.350;6.576;2022-12-07T03:01:30;18.38;;;9.50;;
23228;SDS011;11783;50.350;6.576;2022-12-07T03:10:01;20.20;;;10.57;;
23228;SDS011;11783;50.350;6.576;2022-12-07T03:12:39;20.75;;;10.85;;
23228;SDS011;11783;50.350;6.576;2022-12-07T03:15:20;22.30;;;11.85;;
23228;SDS011;11783;50.350;6.576;2022-12-07T03:17:51;22.17;;;11.47;;
23228;SDS011;11783;50.350;6.576;2022-12-07T03:20:18;25.65;;;12.48;;
23228;SDS011;11783;50.350;6.576;2022-12-07T03:22:47;23.27;;;12.05;;
23228;SDS011;11783;50.350;6.576;2022-12-07T03:25:13;26.83;;;12.20;;
23228;SDS011;11783;50.350;6.576;2022-12-07T03:27:53;27.70;;;12.18;;
23228;SDS011;11783;50.350;6.576;2022-12-07T03:30:22;25.60;;;12.48;;
23228;SDS011;11783;50.350;6.576;2022-12-07T03:32:53;26.20;;;12.73;;
23228;SDS011;11783;50.350;6.576;2022-12-07T03:35:31;28.67;;;12.95;;
23228;SDS011;11783;50.350;6.576;2022-12-07T03:38:02;23.77;;;11.93;;
23228;SDS011;11783;50.350;6.576;2022-12-07T03:40:39;25.17;;;12.43;;
23228;SDS011;11783;50.350;6.576;2022-12-07T03:43:14;27.17;;;11.82;;
23228;SDS011;11783;50.350;6.576;2022-12-07T03:45:44;27.40;;;13.23;;
23228;SDS011;11783;50.350;6.576;2022-12-07T03:48:40;23.95;;;11.98;;
23228;SDS011;11783;50.350;6.576;2022-12-07T03:51:13;25.60;;;11.82;;
23228;SDS011;11783;50.350;6.576;2022-12-07T03:56:31;26.00;;;12.40;;
23228;SDS011;11783;50.350;6.576;2022-12-07T03:58:58;25.38;;;12.80;;
23228;SDS011;11783;50.350;6.576;2022-12-07T04:01:23;25.05;;;11.80;;
23228;SDS011;11783;50.350;6.576;2022-12-07T04:03:50;24.05;;;11.50;;
23228;SDS011;11783;50.350;6.576;2022-12-07T04:06:15;26.30;;;11.98;;
23228;SDS011;11783;50.350;6.576;2022-12-07T04:08:41;24.63;;;12.25;;
23228;SDS011;11783;50.350;6.576;2022-12-07T04:11:06;24.30;;;11.75;;
23228;SDS011;11783;50.350;6.576;2022-12-07T04:13:31;23.10;;;11.65;;
23228;SDS011;11783;50.350;6.576;2022-12-07T04:16:16;20.70;;;10.10;;
23228;SDS011;11783;50.350;6.576;2022-12-07T04:18:42;20.50;;;10.40;;
23228;SDS011;11783;50.350;6.576;2022-12-07T04:21:07;19.33;;;10.07;;
23228;SDS011;11783;50.350;6.576;2022-12-07T04:23:32;18.75;;;10.30;;
23228;SDS011;11783;50.350;6.576;2022-12-07T04:25:57;19.80;;;10.70;;
23228;SDS011;11783;50.350;6.576;2022-12-07T04:28:23;20.85;;;10.05;;
23228;SDS011;11783;50.350;6.576;2022-12-07T04:30:48;17.52;;;9.40;;
23228;SDS011;11783;50.350;6.576;2022-12-07T04:33:13;19.67;;;9.73;;
23228;SDS011;11783;50.350;6.576;2022-12-07T04:35:38;19.30;;;9.45;;
23228;SDS011;11783;50.350;6.576;2022-12-07T04:38:04;18.20;;;9.57;;
23228;SDS011;11783;50.350;6.576;2022-12-07T04:40:29;15.88;;;8.85;;
23228;SDS011;11783;50.350;6.576;2022-12-07T04:42:54;17.75;;;8.98;;
23228;SDS011;11783;50.350;6.576;2022-12-07T04:45:20;20.27;;;9.07;;
23228;SDS011;11783;50.350;6.576;2022-12-07T04:47:45;15.38;;;8.18;;
23228;SDS011;11783;50.350;6.576;2022-12-07T04:50:10;17.88;;;8.80;;
23228;SDS011;11783;50.350;6.576;2022-12-07T04:52:35;16.15;;;8.65;;
23228;SDS011;11783;50.350;6.576;2022-12-07T04:55:01;14.70;;;7.80;;
23228;SDS011;11783;50.350;6.576;2022-12-07T04:57:26;14.68;;;8.15;;
23228;SDS011;11783;50.350;6.576;2022-12-07T04:59:51;15.45;;;7.90;;
23228;SDS011;11783;50.350;6.576;2022-12-07T05:02:17;14.70;;;8.20;;
23228;SDS011;11783;50.350;6.576;2022-12-07T05:04:42;14.10;;;7.85;;
23228;SDS011;11783;50.350;6.576;2022-12-07T05:07:07;13.90;;;8.30;;
23228;SDS011;11783;50.350;6.576;2022-12-07T05:09:33;14.18;;;7.88;;
23228;SDS011;11783;50.350;6.576;2022-12-07T05:11:58;12.32;;;6.57;;
23228;SDS011;11783;50.350;6.576;2022-12-07T05:14:23;13.93;;;7.47;;
23228;SDS011;11783;50.350;6.576;2022-12-07T05:16:49;14.07;;;7.70;;
23228;SDS011;11783;50.350;6.576;2022-12-07T05:19:16;13.38;;;7.20;;
23228;SDS011;11783;50.350;6.576;2022-12-07T05:21:41;13.35;;;7.00;;
23228;SDS011;11783;50.350;6.576;2022-12-07T05:24:07;12.93;;;7.38;;
23228;SDS011;11783;50.350;6.576;2022-12-07T05:26:34;13.70;;;7.50;;
23228;SDS011;11783;50.350;6.576;2022-12-07T05:29:00;12.48;;;7.22;;
23228;SDS011;11783;50.350;6.576;2022-12-07T05:31:25;15.25;;;7.85;;
23228;SDS011;11783;50.350;6.576;2022-12-07T05:33:52;12.65;;;7.65;;
23228;SDS011;11783;50.350;6.576;2022-12-07T05:36:18;13.27;;;7.10;;
23228;SDS011;11783;50.350;6.576;2022-12-07T05:38:43;11.90;;;7.18;;
23228;SDS011;11783;50.350;6.576;2022-12-07T05:41:09;13.07;;;7.43;;
23228;SDS011;11783;50.350;6.576;2022-12-07T05:43:58;11.95;;;6.80;;
23228;SDS011;11783;50.350;6.576;2022-12-07T05:46:24;13.95;;;7.53;;
23228;SDS011;11783;50.350;6.576;2022-12-07T05:48:49;12.18;;;7.20;;
23228;SDS011;11783;50.350;6.576;2022-12-07T05:51:15;13.82;;;7.60;;
23228;SDS011;11783;50.350;6.576;2022-12-07T05:53:40;12.07;;;7.07;;
23228;SDS011;11783;50.350;6.576;2022-12-07T05:56:05;12.00;;;7.13;;
23228;SDS011;11783;50.350;6.576;2022-12-07T05:58:31;12.13;;;6.90;;
23228;SDS011;11783;50.350;6.576;2022-12-07T06:01:15;13.90;;;7.18;;
23228;SDS011;11783;50.350;6.576;2022-12-07T06:03:40;12.50;;;6.82;;
23228;SDS011;11783;50.350;6.576;2022-12-07T06:06:05;14.32;;;7.60;;
23228;SDS011;11783;50.350;6.576;2022-12-07T06:08:31;12.63;;;7.28;;
23228;SDS011;11783;50.350;6.576;2022-12-07T06:10:56;13.70;;;6.97;;
23228;SDS011;11783;50.350;6.576;2022-12-07T06:13:40;16.80;;;8.80;;
23228;SDS011;11783;50.350;6.576;2022-12-07T06:16:05;15.07;;;7.53;;
23228;SDS011;11783;50.350;6.576;2022-12-07T06:18:31;13.75;;;8.18;;
23228;SDS011;11783;50.350;6.576;2022-12-07T06:20:56;15.52;;;7.60;;
23228;SDS011;11783;50.350;6.576;2022-12-07T06:23:21;14.85;;;8.07;;
23228;SDS011;11783;50.350;6.576;2022-12-07T06:25:47;14.75;;;8.32;;
23228;SDS011;11783;50.350;6.576;2022-12-07T06:28:12;15.40;;;7.47;;
23228;SDS011;11783;50.350;6.576;2022-12-07T06:30:37;14.23;;;7.97;;
23228;SDS011;11783;50.350;6.576;2022-12-07T06:33:03;15.50;;;8.45;;
23228;SDS011;11783;50.350;6.576;2022-12-07T06:35:28;16.65;;;7.82;;
23228;SDS011;11783;50.350;6.576;2022-12-07T06:37:53;15.82;;;7.78;;
23228;SDS011;11783;50.350;6.576;2022-12-07T06:40:18;18.15;;;8.77;;
23228;SDS011;11783;50.350;6.576;2022-12-07T06:42:44;15.65;;;8.05;;
23228;SDS011;11783;50.350;6.576;2022-12-07T06:45:09;17.52;;;8.23;;
23228;SDS011;11783;50.350;6.576;2022-12-07T06:47:35;17.00;;;8.27;;
23228;SDS011;11783;50.350;6.576;2022-12-07T06:50:00;15.95;;;7.53;;
23228;SDS011;11783;50.350;6.576;2022-12-07T06:52:25;18.08;;;8.15;;
23228;SDS011;11783;50.350;6.576;2022-12-07T06:54:50;15.40;;;8.52;;
23228;SDS011;11783;50.350;6.576;2022-12-07T06:57:16;16.75;;;9.40;;
23228;SDS011;11783;50.350;6.576;2022-12-07T06:59:41;17.02;;;8.90;;
23228;SDS011;11783;50.350;6.576;2022-12-07T07:02:07;17.52;;;8.98;;
23228;SDS011;11783;50.350;6.576;2022-12-07T07:04:33;16.58;;;8.90;;
23228;SDS011;11783;50.350;6.576;2022-12-07T07:06:58;16.52;;;8.88;;
23228;SDS011;11783;50.350;6.576;2022-12-07T07:09:24;15.75;;;8.75;;
23228;SDS011;11783;50.350;6.576;2022-12-07T07:11:49;16.88;;;9.30;;
23228;SDS011;11783;50.350;6.576;2022-12-07T07:14:14;17.33;;;9.55;;
23228;SDS011;11783;50.350;6.576;2022-12-07T07:16:43;16.52;;;9.32;;
23228;SDS011;11783;50.350;6.576;2022-12-07T07:19:09;18.83;;;9.30;;
23228;SDS011;11783;50.350;6.576;2022-12-07T07:21:34;21.83;;;10.45;;
23228;SDS011;11783;50.350;6.576;2022-12-07T07:24:00;21.45;;;10.75;;
23228;SDS011;11783;50.350;6.576;2022-12-07T07:26:25;21.75;;;11.15;;
23228;SDS011;11783;50.350;6.576;2022-12-07T07:28:50;22.65;;;10.10;;
23228;SDS011;11783;50.350;6.576;2022-12-07T07:31:15;21.50;;;10.20;;
23228;SDS011;11783;50.350;6.576;2022-12-07T07:33:41;19.15;;;9.80;;
23228;SDS011;11783;50.350;6.576;2022-12-07T07:36:06;20.23;;;10.52;;
23228;SDS011;11783;50.350;6.576;2022-12-07T07:38:32;22.02;;;10.68;;
23228;SDS011;11783;50.350;6.576;2022-12-07T07:40:57;19.17;;;10.13;;
23228;SDS011;11783;50.350;6.576;2022-12-07T07:43:22;21.77;;;10.50;;
23228;SDS011;11783;50.350;6.576;2022-12-07T07:45:47;18.30;;;9.70;;
23228;SDS011;11783;50.350;6.576;2022-12-07T07:48:13;21.75;;;9.93;;
23228;SDS011;11783;50.350;6.576;2022-12-07T07:50:38;23.55;;;10.82;;
23228;SDS011;11783;50.350;6.576;2022-12-07T07:53:03;20.35;;;9.90;;
23228;SDS011;11783;50.350;6.576;2022-12-07T07:55:28;20.73;;;9.82;;
23228;SDS011;11783;50.350;6.576;2022-12-07T07:57:54;22.15;;;9.52;;
23228;SDS011;11783;50.350;6.576;2022-12-07T08:00:19;20.50;;;10.15;;
23228;SDS011;11783;50.350;6.576;2022-12-07T08:02:45;19.60;;;9.57;;
23228;SDS011;11783;50.350;6.576;2022-12-07T08:05:11;19.20;;;10.18;;
23228;SDS011;11783;50.350;6.576;2022-12-07T08:07:37;18.38;;;8.85;;
23228;SDS011;11783;50.350;6.576;2022-12-07T08:10:03;18.13;;;9.88;;
23228;SDS011;11783;50.350;6.576;2022-12-07T08:12:28;20.08;;;9.32;;
23228;SDS011;11783;50.350;6.576;2022-12-07T08:14:54;17.80;;;9.35;;
23228;SDS011;11783;50.350;6.576;2022-12-07T08:17:19;17.65;;;9.30;;
23228;SDS011;11783;50.350;6.576;2022-12-07T08:19:44;16.33;;;8.48;;
23228;SDS011;11783;50.350;6.576;2022-12-07T08:22:09;19.95;;;10.40;;
23228;SDS011;11783;50.350;6.576;2022-12-07T08:24:35;17.67;;;8.45;;
23228;SDS011;11783;50.350;6.576;2022-12-07T08:27:01;17.90;;;9.38;;
23228;SDS011;11783;50.350;6.576;2022-12-07T08:29:27;22.30;;;10.18;;
23228;SDS011;11783;50.350;6.576;2022-12-07T08:31:52;20.25;;;10.05;;
23228;SDS011;11783;50.350;6.576;2022-12-07T08:34:17;20.77;;;10.32;;
23228;SDS011;11783;50.350;6.576;2022-12-07T08:36:43;23.10;;;10.50;;
23228;SDS011;11783;50.350;6.576;2022-12-07T08:39:08;16.58;;;8.82;;
23228;SDS011;11783;50.350;6.576;2022-12-07T08:41:34;15.07;;;7.88;;
23228;SDS011;11783;50.350;6.576;2022-12-07T08:43:59;13.00;;;6.93;;
23228;SDS011;11783;50.350;6.576;2022-12-07T08:46:25;13.55;;;6.38;;
23228;SDS011;11783;50.350;6.576;2022-12-07T08:49:05;11.00;;;6.50;;
23228;SDS011;11783;50.350;6.576;2022-12-07T08:51:36;12.90;;;6.15;;
23228;SDS011;11783;50.350;6.576;2022-12-07T08:54:03;12.70;;;5.88;;
23228;SDS011;11783;50.350;6.576;2022-12-07T08:56:32;9.73;;;5.70;;
23228;SDS011;11783;50.350;6.576;2022-12-07T08:58:58;12.63;;;6.57;;
23228;SDS011;11783;50.350;6.576;2022-12-07T09:01:24;12.05;;;5.25;;
23228;SDS011;11783;50.350;6.576;2022-12-07T09:03:49;11.95;;;6.15;;
23228;SDS011;11783;50.350;6.576;2022-12-07T09:06:15;10.32;;;6.05;;
23228;SDS011;11783;50.350;6.576;2022-12-07T09:08:41;12.52;;;6.65;;
23228;SDS011;11783;50.350;6.576;2022-12-07T09:11:09;13.93;;;7.60;;
23228;SDS011;11783;50.350;6.576;2022-12-07T09:13:34;12.75;;;6.85;;
23228;SDS011;11783;50.350;6.576;2022-12-07T09:16:00;15.57;;;7.60;;
23228;SDS011;11783;50.350;6.576;2022-12-07T09:18:26;19.52;;;8.45;;
23228;SDS011;11783;50.350;6.576;2022-12-07T09:20:51;14.43;;;7.05;;
23228;SDS011;11783;50.350;6.576;2022-12-07T09:23:16;16.00;;;7.45;;
23228;SDS011;11783;50.350;6.576;2022-12-07T09:25:41;12.40;;;6.60;;
23228;SDS011;11783;50.350;6.576;2022-12-07T09:28:07;13.10;;;5.72;;
23228;SDS011;11783;50.350;6.576;2022-12-07T09:30:33;12.35;;;5.80;;
23228;SDS011;11783;50.350;6.576;2022-12-07T09:32:59;10.15;;;5.75;;
23228;SDS011;11783;50.350;6.576;2022-12-07T09:35:24;14.27;;;5.65;;
23228;SDS011;11783;50.350;6.576;2022-12-07T09:37:50;13.77;;;6.53;;
23228;SDS011;11783;50.350;6.576;2022-12-07T09:40:16;9.70;;;5.63;;
23228;SDS011;11783;50.350;6.576;2022-12-07T09:42:45;12.20;;;6.35;;
23228;SDS011;11783;50.350;6.576;2022-12-07T09:45:15;13.30;;;6.93;;
23228;SDS011;11783;50.350;6.576;2022-12-07T09:47:44;14.48;;;6.25;;
23228;SDS011;11783;50.350;6.576;2022-12-07T09:50:21;13.05;;;6.97;;
23228;SDS011;11783;50.350;6.576;2022-12-07T09:52:49;12.70;;;6.35;;
23228;SDS011;11783;50.350;6.576;2022-12-07T09:55:18;12.35;;;6.63;;
23228;SDS011;11783;50.350;6.576;2022-12-07T09:57:49;11.95;;;6.10;;
23228;SDS011;11783;50.350;6.576;2022-12-07T10:00:17;12.20;;;6.50;;
23228;SDS011;11783;50.350;6.576;2022-12-07T10:02:46;12.70;;;6.82;;
23228;SDS011;11783;50.350;6.576;2022-12-07T10:05:22;12.95;;;7.57;;
23228;SDS011;11783;50.350;6.576;2022-12-07T10:07:51;14.23;;;7.35;;
23228;SDS011;11783;50.350;6.576;2022-12-07T10:10:18;15.73;;;7.05;;
23228;SDS011;11783;50.350;6.576;2022-12-07T10:12:57;11.82;;;6.43;;
23228;SDS011;11783;50.350;6.576;2022-12-07T10:18:19;11.10;;;6.00;;
23228;SDS011;11783;50.350;6.576;2022-12-07T10:21:03;13.48;;;6.78;;
23228;SDS011;11783;50.350;6.576;2022-12-07T10:23:29;10.65;;;5.82;;
23228;SDS011;11783;50.350;6.576;2022-12-07T10:25:55;12.48;;;6.57;;
23228;SDS011;11783;50.350;6.576;2022-12-07T10:28:20;11.02;;;6.05;;
23228;SDS011;11783;50.350;6.576;2022-12-07T10:30:47;11.68;;;6.38;;
23228;SDS011;11783;50.350;6.576;2022-12-07T10:33:28;10.63;;;6.13;;
23228;SDS011;11783;50.350;6.576;2022-12-07T10:35:59;10.80;;;6.22;;
23228;SDS011;11783;50.350;6.576;2022-12-07T10:38:27;13.38;;;5.70;;
23228;SDS011;11783;50.350;6.576;2022-12-07T10:41:03;10.90;;;5.60;;
23228;SDS011;11783;50.350;6.576;2022-12-07T10:43:31;10.60;;;5.90;;
23228;SDS011;11783;50.350;6.576;2022-12-07T10:48:46;12.48;;;6.80;;
23228;SDS011;11783;50.350;6.576;2022-12-07T10:51:51;11.35;;;6.00;;
23228;SDS011;11783;50.350;6.576;2022-12-07T10:57:37;13.68;;;7.45;;
23228;SDS011;11783;50.350;6.576;2022-12-07T11:00:21;15.00;;;8.00;;
23228;SDS011;11783;50.350;6.576;2022-12-07T11:02:59;14.60;;;7.18;;
23228;SDS011;11783;50.350;6.576;2022-12-07T11:05:52;14.52;;;7.25;;
23228;SDS011;11783;50.350;6.576;2022-12-07T11:08:30;13.95;;;7.55;;
23228;SDS011;11783;50.350;6.576;2022-12-07T11:11:14;16.08;;;7.82;;
23228;SDS011;11783;50.350;6.576;2022-12-07T11:13:48;15.45;;;8.15;;
23228;SDS011;11783;50.350;6.576;2022-12-07T11:16:28;15.93;;;8.05;;
23228;SDS011;11783;50.350;6.576;2022-12-07T11:24:26;17.35;;;9.13;;
23228;SDS011;11783;50.350;6.576;2022-12-07T11:32:49;15.93;;;8.48;;
23228;SDS011;11783;50.350;6.576;2022-12-07T11:38:15;16.58;;;8.93;;
23228;SDS011;11783;50.350;6.576;2022-12-07T11:40:49;19.05;;;9.32;;
23228;SDS011;11783;50.350;6.576;2022-12-07T11:43:24;18.63;;;8.75;;
23228;SDS011;11783;50.350;6.576;2022-12-07T11:45:54;17.05;;;9.20;;
23228;SDS011;11783;50.350;6.576;2022-12-07T11:53:38;17.30;;;8.43;;
23228;SDS011;11783;50.350;6.576;2022-12-07T11:58:39;19.13;;;8.70;;
23228;SDS011;11783;50.350;6.576;2022-12-07T12:07:21;16.60;;;7.75;;
23228;SDS011;11783;50.350;6.576;2022-12-07T12:09:53;18.60;;;8.45;;
23228;SDS011;11783;50.350;6.576;2022-12-07T12:21:10;12.68;;;6.82;;
23228;SDS011;11783;50.350;6.576;2022-12-07T12:23:48;14.32;;;6.15;;
23228;SDS011;11783;50.350;6.576;2022-12-07T12:26:25;13.35;;;7.20;;
23228;SDS011;11783;50.350;6.576;2022-12-07T12:36:59;12.45;;;6.30;;
23228;SDS011;11783;50.350;6.576;2022-12-07T12:39:24;15.13;;;6.28;;
23228;SDS011;11783;50.350;6.576;2022-12-07T12:41:51;11.75;;;5.63;;
23228;SDS011;11783;50.350;6.576;2022-12-07T12:51:50;10.80;;;5.68;;
23228;SDS011;11783;50.350;6.576;2022-12-07T12:54:21;12.18;;;5.93;;
23228;SDS011;11783;50.350;6.576;2022-12-07T12:57:04;9.32;;;4.97;;
23228;SDS011;11783;50.350;6.576;2022-12-07T13:10:24;10.73;;;6.47;;
23228;SDS011;11783;50.350;6.576;2022-12-07T13:21:44;14.43;;;6.15;;
23228;SDS011;11783;50.350;6.576;2022-12-07T13:29:35;12.35;;;6.70;;
23228;SDS011;11783;50.350;6.576;2022-12-07T13:31:41;13.50;;;6.45;;
23228;SDS011;11783;50.350;6.576;2022-12-07T13:36:57;11.15;;;5.88;;
23228;SDS011;11783;50.350;6.576;2022-12-07T13:39:25;12.60;;;6.40;;
23228;SDS011;11783;50.350;6.576;2022-12-07T13:41:52;12.90;;;5.95;;
23228;SDS011;11783;50.350;6.576;2022-12-07T13:44:21;10.48;;;5.80;;
23228;SDS011;11783;50.350;6.576;2022-12-07T13:49:32;9.73;;;5.40;;
23228;SDS011;11783;50.350;6.576;2022-12-07T13:52:11;11.77;;;5.78;;
23228;SDS011;11783;50.350;6.576;2022-12-07T13:57:25;12.00;;;6.13;;
23228;SDS011;11783;50.350;6.576;2022-12-07T13:59:52;11.35;;;6.15;;
23228;SDS011;11783;50.350;6.576;2022-12-07T14:02:23;11.15;;;6.20;;
23228;SDS011;11783;50.350;6.576;2022-12-07T14:05:14;13.60;;;7.15;;
23228;SDS011;11783;50.350;6.576;2022-12-07T14:11:02;14.00;;;7.35;;
23228;SDS011;11783;50.350;6.576;2022-12-07T14:13:56;15.32;;;7.30;;
23228;SDS011;11783;50.350;6.576;2022-12-07T14:18:52;11.88;;;6.80;;
23228;SDS011;11783;50.350;6.576;2022-12-07T14:21:20;13.63;;;7.60;;
23228;SDS011;11783;50.350;6.576;2022-12-07T14:26:32;12.55;;;6.15;;
23228;SDS011;11783;50.350;6.576;2022-12-07T14:29:18;14.18;;;7.20;;
23228;SDS011;11783;50.350;6.576;2022-12-07T14:31:52;12.43;;;6.57;;
23228;SDS011;11783;50.350;6.576;2022-12-07T14:34:21;10.27;;;6.28;;
23228;SDS011;11783;50.350;6.576;2022-12-07T14:36:47;13.70;;;6.53;;
23228;SDS011;11783;50.350;6.576;2022-12-07T14:39:13;9.63;;;6.10;;
23228;SDS011;11783;50.350;6.576;2022-12-07T14:41:38;13.77;;;5.80;;
23228;SDS011;11783;50.350;6.576;2022-12-07T14:44:16;9.55;;;4.88;;
23228;SDS011;11783;50.350;6.576;2022-12-07T14:46:42;11.70;;;5.88;;
23228;SDS011;11783;50.350;6.576;2022-12-07T14:49:08;10.20;;;5.75;;
23228;SDS011;11783;50.350;6.576;2022-12-07T14:51:33;14.52;;;5.75;;
23228;SDS011;11783;50.350;6.576;2022-12-07T14:54:03;8.18;;;4.75;;
23228;SDS011;11783;50.350;6.576;2022-12-07T14:56:30;10.48;;;5.28;;
23228;SDS011;11783;50.350;6.576;2022-12-07T14:58:55;8.95;;;4.03;;
23228;SDS011;11783;50.350;6.576;2022-12-07T15:01:20;10.85;;;5.35;;
23228;SDS011;11783;50.350;6.576;2022-12-07T15:03:46;10.60;;;4.45;;
23228;SDS011;11783;50.350;6.576;2022-12-07T15:06:13;9.43;;;5.03;;
23228;SDS011;11783;50.350;6.576;2022-12-07T15:08:39;10.98;;;5.18;;
23228;SDS011;11783;50.350;6.576;2022-12-07T15:11:05;7.78;;;4.90;;
23228;SDS011;11783;50.350;6.576;2022-12-07T15:13:30;8.82;;;4.75;;
23228;SDS011;11783;50.350;6.576;2022-12-07T15:16:16;12.45;;;6.35;;
23228;SDS011;11783;50.350;6.576;2022-12-07T15:18:45;10.40;;;6.28;;
23228;SDS011;11783;50.350;6.576;2022-12-07T15:21:14;12.50;;;7.15;;
23228;SDS011;11783;50.350;6.576;2022-12-07T15:23:41;12.07;;;6.18;;
23228;SDS011;11783;50.350;6.576;2022-12-07T15:26:06;11.70;;;5.57;;
23228;SDS011;11783;50.350;6.576;2022-12-07T15:28:32;12.02;;;6.35;;
23228;SDS011;11783;50.350;6.576;2022-12-07T15:30:58;11.60;;;5.85;;
23228;SDS011;11783;50.350;6.576;2022-12-07T15:33:24;12.35;;;5.68;;
23228;SDS011;11783;50.350;6.576;2022-12-07T15:35:49;12.15;;;5.88;;
23228;SDS011;11783;50.350;6.576;2022-12-07T15:38:14;10.38;;;5.68;;
23228;SDS011;11783;50.350;6.576;2022-12-07T15:40:40;11.00;;;5.60;;
23228;SDS011;11783;50.350;6.576;2022-12-07T15:43:05;9.52;;;4.88;;
23228;SDS011;11783;50.350;6.576;2022-12-07T15:45:53;13.68;;;7.15;;
23228;SDS011;11783;50.350;6.576;2022-12-07T15:48:18;10.95;;;6.28;;
23228;SDS011;11783;50.350;6.576;2022-12-07T15:50:43;13.13;;;6.72;;
23228;SDS011;11783;50.350;6.576;2022-12-07T15:53:08;11.27;;;6.00;;
23228;SDS011;11783;50.350;6.576;2022-12-07T15:55:34;12.73;;;6.97;;
23228;SDS011;11783;50.350;6.576;2022-12-07T15:57:59;12.68;;;7.07;;
23228;SDS011;11783;50.350;6.576;2022-12-07T16:00:25;12.55;;;6.82;;
23228;SDS011;11783;50.350;6.576;2022-12-07T16:02:50;12.57;;;6.95;;
23228;SDS011;11783;50.350;6.576;2022-12-07T16:05:15;13.10;;;6.47;;
23228;SDS011;11783;50.350;6.576;2022-12-07T16:07:40;12.52;;;7.78;;
23228;SDS011;11783;50.350;6.576;2022-12-07T16:10:06;11.48;;;7.07;;
23228;SDS011;11783;50.350;6.576;2022-12-07T16:12:32;17.38;;;9.20;;
23228;SDS011;11783;50.350;6.576;2022-12-07T16:14:57;16.90;;;9.00;;
23228;SDS011;11783;50.350;6.576;2022-12-07T16:17:22;15.98;;;9.38;;
23228;SDS011;11783;50.350;6.576;2022-12-07T16:19:47;20.50;;;10.20;;
23228;SDS011;11783;50.350;6.576;2022-12-07T16:22:13;17.83;;;9.73;;
23228;SDS011;11783;50.350;6.576;2022-12-07T16:24:38;16.73;;;9.90;;
23228;SDS011;11783;50.350;6.576;2022-12-07T16:27:03;19.75;;;10.38;;
23228;SDS011;11783;50.350;6.576;2022-12-07T16:29:29;21.08;;;12.32;;
23228;SDS011;11783;50.350;6.576;2022-12-07T16:31:54;15.65;;;9.73;;
23228;SDS011;11783;50.350;6.576;2022-12-07T16:34:19;19.70;;;10.93;;
23228;SDS011;11783;50.350;6.576;2022-12-07T16:36:45;21.23;;;11.15;;
23228;SDS011;11783;50.350;6.576;2022-12-07T16:39:10;21.42;;;10.75;;
23228;SDS011;11783;50.350;6.576;2022-12-07T16:41:36;18.42;;;10.02;;
23228;SDS011;11783;50.350;6.576;2022-12-07T16:44:02;21.20;;;10.82;;
23228;SDS011;11783;50.350;6.576;2022-12-07T16:46:30;26.45;;;15.23;;
23228;SDS011;11783;50.350;6.576;2022-12-07T16:48:57;21.88;;;12.40;;